State Line, Indiana
Current Conditions -  °F | °C
As of 11:55 PM on Sunday 21 Dec 2014 (Local Time) from KDNV Reporting Station
Clear Clear  
Wind Chill: 24°   Ceiling: Unl
Heat Index: 31°   Visibility: 7mi
Dew Point: 28°   Wind: 7mph
Humidity: 89%   Direction: 120°ESE
Pressure: 30.02"   Gusts: NA
Location:  40.19°N, 87.52°W
Report Text: KDNV 220455Z AUTO 12006KT 7SM CLR M01/M02 A3002 RMK AO2 T10071023
Loading
Personal Weather Stations






























Interactive Weather Map New forecast layout! Learn more

10-Day Weather Forecast

Advertisements
Track Severe Weather on mobile